Latest Weather Observations for Legendre Island

IDW60801

Issued at 7:03 pm WST Monday 2 March 2015 (issued every 30 minutes, with the page automatically refreshed every 10 minutes)

About weather observations | Map of weather stations | Latest weather observations for WA | Other Formats
Station Details ID: 004095 Name: LEGENDRE ISLAND Lat: -20.36 Lon: 116.84 Height: 29.0 m
Data from the previous 72 hours. | See also: Recent months for locations in Western Australia
Date/Time
WST
Temp
°C
App
Temp
°C
Dew
Point
Rel
Hum
%
Delta-T
°C
Wind Press
QNH
hPa
Press
MSL
hPa
Rain
since 9 am
mm
Dir
 
Spd
km/h
Gust
km/h
Spd
kts
Gust
kts
02/07:00pm 28.1 28.9 23.2 74 3.4 W 24 30 13 16 1005.7 1005.5 -
02/06:30pm 28.4 28.5 23.3 74 3.5 W 28 32 15 17 1005.2 1005.0 -
02/06:00pm 29.0 29.1 23.2 71 4.0 W 28 33 15 18 1004.9 1004.7 -
02/05:30pm 29.6 29.6 23.1 68 4.5 W 28 35 15 19 1004.5 1004.3 -
02/05:00pm 30.4 30.8 23.1 65 5.0 WNW 26 30 14 16 1004.4 1004.2 -
02/04:30pm 30.7 31.5 23.1 64 5.2 WNW 24 30 13 16 1004.3 1004.1 -
02/04:00pm 30.9 31.1 22.8 62 5.6 WNW 26 32 14 17 1004.2 1004.0 -
02/03:30pm 31.0 31.7 22.9 62 5.6 WNW 24 30 13 16 1004.3 1004.1 -
02/03:00pm 31.2 31.9 23.0 61 5.7 WNW 24 28 13 15 1004.9 1004.7 -
02/02:30pm 31.5 32.5 22.8 60 6.0 WNW 22 26 12 14 1005.4 1005.2 -
02/02:00pm 31.2 32.2 22.2 58 6.1 WNW 20 26 11 14 1005.6 1005.4 -
02/01:30pm 32.4 34.0 22.8 57 6.6 WNW 19 24 10 13 1006.1 1005.9 -
02/01:00pm 31.9 34.0 23.7 62 5.7 W 19 24 10 13 1006.4 1006.2 -
02/12:30pm 32.6 35.5 24.4 62 5.8 W 17 20 9 11 1006.8 1006.6 -
02/12:00pm 31.4 33.4 23.0 61 5.8 W 17 22 9 12 1007.1 1006.9 -
02/11:30am 31.8 34.2 23.6 62 5.7 WSW 17 20 9 11 1007.3 1007.1 -
02/11:00am 30.7 32.6 22.8 62 5.4 WSW 17 20 9 11 1007.6 1007.4 -
02/10:30am 31.3 33.2 23.4 63 5.5 WSW 19 24 10 13 1007.8 1007.6 -
02/10:00am 30.8 32.7 22.7 62 5.5 WSW 17 22 9 12 1008.1 1007.9 -
02/09:30am 30.1 31.8 22.3 63 5.3 WSW 17 24 9 13 1008.2 1008.0 -
02/09:00am 29.9 31.5 22.9 66 4.8 WSW 19 22 10 12 1008.2 1008.0 -
02/08:30am 29.5 30.9 22.5 66 4.8 W 19 22 10 12 1008.0 1007.8 -
02/08:00am 29.0 30.2 22.5 68 4.4 WSW 20 26 11 14 1007.9 1007.7 -
02/07:30am 28.4 29.8 22.6 71 3.9 WSW 19 24 10 13 1007.6 1007.4 -
02/07:00am 27.5 29.1 22.9 76 3.1 WSW 19 24 10 13 1007.5 1007.3 -
02/06:30am 26.9 28.3 22.9 79 2.7 WSW 20 24 11 13 1007.4 1007.2 -
02/06:00am 26.7 27.7 22.8 79 2.6 WSW 22 28 12 15 1007.2 1007.0 -
02/05:30am 26.8 28.6 23.5 82 2.3 WSW 20 28 11 15 1006.8 1006.6 -
02/05:00am 26.7 27.4 23.0 80 2.5 WSW 24 32 13 17 1006.6 1006.4 -
02/04:30am 26.9 27.7 23.2 80 2.5 WSW 24 30 13 16 1006.5 1006.3 -
02/04:00am 26.8 27.4 22.8 79 2.7 WSW 24 30 13 16 1006.8 1006.6 -
02/03:30am 27.1 28.2 23.6 81 2.4 WSW 24 30 13 16 1006.8 1006.6 -
02/03:00am 27.0 27.2 23.5 81 2.4 WSW 28 33 15 18 1006.8 1006.6 -
02/02:30am 27.2 27.8 23.4 80 2.6 WSW 26 33 14 18 1007.0 1006.8 -
02/02:00am 27.2 27.4 23.4 80 2.6 W 28 33 15 18 1006.9 1006.7 -
02/01:30am 27.4 28.3 23.4 79 2.7 W 24 28 13 15 1007.2 1007.0 -
02/01:00am 27.1 28.7 23.3 80 2.6 W 20 26 11 14 1007.2 1007.0 -
02/12:30am 27.1 29.0 23.8 82 2.3 W 20 24 11 13 1007.4 1007.2 -
02/12:00am 27.1 29.6 24.4 85 1.9 W 19 24 10 13 1007.3 1007.1 -
 
Date/Time
WST
Temp
°C
App
Temp
°C
Dew
Point
Rel
Hum
%
Delta-T
°C
Wind Press
QNH
hPa
Press
MSL
hPa
Rain
since 9 am
mm
Dir
 
Spd
km/h
Gust
km/h
Spd
kts
Gust
kts
01/11:30pm 27.1 29.7 24.6 86 1.7 W 19 24 10 13 1007.5 1007.3 -
01/11:00pm 27.2 29.7 24.5 85 1.9 W 19 20 10 11 1007.8 1007.6 -
01/10:30pm 27.3 30.3 24.6 85 1.9 W 17 22 9 12 1007.9 1007.7 -
01/10:00pm 27.5 29.6 24.1 82 2.4 W 20 22 11 12 1007.7 1007.5 -
01/09:30pm 27.4 29.7 24.1 82 2.3 W 19 22 10 12 1007.8 1007.6 -
01/09:00pm 27.6 30.0 24.2 82 2.4 W 19 24 10 13 1007.7 1007.5 -
01/08:30pm 27.6 29.5 23.8 80 2.6 W 20 26 11 14 1007.4 1007.2 -
01/08:00pm 27.8 30.0 24.2 81 2.5 W 20 26 11 14 1007.0 1006.8 -
01/07:30pm 27.9 29.5 23.9 79 2.8 W 22 26 12 14 1006.8 1006.6 -
01/07:00pm 28.0 29.1 23.6 77 3.0 W 24 30 13 16 1006.4 1006.2 -
01/06:30pm 28.3 29.8 23.7 76 3.2 W 22 28 12 15 1006.2 1006.0 -
01/06:00pm 28.9 29.7 23.8 74 3.5 W 26 32 14 17 1005.9 1005.7 -
01/05:30pm 29.5 30.6 23.7 71 4.0 W 24 30 13 16 1005.7 1005.5 -
01/05:00pm 30.1 31.7 23.8 69 4.4 W 22 28 12 15 1005.6 1005.4 -
01/04:30pm 30.1 30.8 23.0 65 4.9 W 24 30 13 16 1005.5 1005.3 -
01/04:00pm 30.2 31.0 23.1 65 4.9 W 24 30 13 16 1005.5 1005.3 -
01/03:30pm 31.7 32.7 23.5 62 5.7 W 24 30 13 16 1005.8 1005.6 -
01/03:00pm 31.5 32.3 23.1 61 5.8 W 24 30 13 16 1005.9 1005.7 -
01/02:30pm 32.5 33.5 22.9 57 6.6 W 22 28 12 15 1006.2 1006.0 -
01/02:00pm 32.3 33.3 21.8 54 7.1 W 19 24 10 13 1006.7 1006.5 -
01/01:30pm 31.2 32.4 22.5 60 5.9 WSW 20 24 11 13 1006.8 1006.6 -
01/01:00pm 32.3 33.8 22.7 57 6.6 W 19 24 10 13 1007.3 1007.1 -
01/12:30pm 31.4 32.9 22.7 60 6.0 W 19 26 10 14 1007.7 1007.5 -
01/12:00pm 31.5 33.6 23.1 61 5.8 W 17 20 9 11 1008.0 1007.8 -
01/11:30am 31.2 33.9 24.1 66 4.9 W 17 22 9 12 1008.1 1007.9 -
01/11:00am 31.5 34.2 24.1 65 5.2 W 17 20 9 11 1008.6 1008.4 -
01/10:30am 31.0 33.6 23.9 66 4.9 W 17 22 9 12 1008.7 1008.5 -
01/10:00am 30.9 33.0 24.1 67 4.7 W 20 24 11 13 1008.8 1008.6 -
01/09:30am 30.4 32.5 24.1 69 4.4 W 20 22 11 12 1008.7 1008.5 -
01/09:00am 30.3 32.8 24.7 72 3.9 W 20 22 11 12 1008.5 1008.3 -
01/08:30am 30.2 32.5 24.1 70 4.2 W 19 20 10 11 1008.5 1008.3 -
01/08:00am 29.3 32.0 24.2 74 3.5 W 17 20 9 11 1008.4 1008.2 -
01/07:30am 28.1 30.8 24.1 79 2.8 W 17 20 9 11 1008.2 1008.0 -
01/07:00am 28.0 30.5 24.4 81 2.5 W 19 24 10 13 1008.1 1007.9 -
01/06:30am 27.4 29.6 24.3 83 2.1 W 20 26 11 14 1007.7 1007.5 -
01/06:00am 27.1 29.4 24.4 85 1.9 W 20 24 11 13 1007.4 1007.2 -
01/05:30am 27.3 29.9 24.6 85 1.9 W 19 24 10 13 1007.1 1006.9 -
01/05:00am 27.1 29.6 24.7 87 1.7 W 20 24 11 13 1006.8 1006.6 -
01/04:30am 27.1 29.6 24.7 87 1.7 W 20 26 11 14 1006.6 1006.4 -
01/04:00am 27.1 29.4 25.1 89 1.4 W 22 26 12 14 1006.5 1006.3 -
01/03:30am 27.1 29.3 24.9 88 1.5 W 22 24 12 13 1006.2 1006.0 -
01/03:00am 27.0 29.0 24.5 86 1.7 W 22 26 12 14 1006.3 1006.1 -
01/02:30am 27.3 29.0 24.6 85 1.9 W 24 28 13 15 1006.2 1006.0 -
01/02:00am 27.1 28.9 24.2 84 2.0 W 22 28 12 15 1006.4 1006.2 -
01/01:30am 27.2 29.2 23.9 82 2.3 W 20 26 11 14 1007.0 1006.8 -
01/01:00am 27.2 28.9 24.1 83 2.1 WSW 22 28 12 15 1007.3 1007.1 -
01/12:30am 27.3 27.7 23.7 81 2.5 WSW 28 35 15 19 1007.4 1007.2 -
01/12:00am 27.5 28.0 24.6 84 2.0 WSW 30 37 16 20 1007.4 1007.2 -
 
Date/Time
WST
Temp
°C
App
Temp
°C
Dew
Point
Rel
Hum
%
Delta-T
°C
Wind Press
QNH
hPa
Press
MSL
hPa
Rain
since 9 am
mm
Dir
 
Spd
km/h
Gust
km/h
Spd
kts
Gust
kts
28/11:30pm 27.7 27.9 24.7 84 2.1 WSW 32 37 17 20 1007.4 1007.2 -
28/11:00pm 27.7 28.9 24.5 83 2.2 W 26 33 14 18 1007.6 1007.4 -
28/10:30pm 27.8 29.1 24.6 83 2.2 W 26 32 14 17 1007.8 1007.6 -
28/10:00pm 27.8 28.7 24.0 80 2.6 W 26 30 14 16 1008.1 1007.9 -
28/09:30pm 27.8 28.7 24.0 80 2.6 W 26 32 14 17 1007.9 1007.7 -
28/09:00pm 27.8 28.8 24.2 81 2.5 W 26 32 14 17 1008.0 1007.8 -
28/08:30pm 28.0 29.3 24.6 82 2.4 W 26 30 14 16 1007.6 1007.4 -
28/08:00pm 28.0 29.3 24.6 82 2.4 W 26 32 14 17 1007.0 1006.8 -
28/07:30pm 28.1 29.1 24.7 82 2.4 W 28 32 15 17 1006.3 1006.1 -
28/07:00pm 28.1 28.8 24.3 80 2.6 W 28 32 15 17 1005.9 1005.7 -
28/06:30pm 28.6 29.5 23.9 75 3.2 W 26 33 14 18 1005.6 1005.4 -
28/06:00pm 29.3 30.2 24.0 73 3.7 W 26 32 14 17 1005.4 1005.2 -
28/05:30pm 30.1 30.6 24.0 70 4.2 W 28 35 15 19 1005.3 1005.1 -
28/05:00pm 30.4 30.1 23.3 66 4.9 WNW 30 37 16 20 1005.2 1005.0 -
28/04:30pm 31.1 31.7 24.2 66 4.8 WNW 28 33 15 18 1005.2 1005.0 -
28/04:00pm 30.8 31.2 23.7 66 4.9 WNW 28 32 15 17 1005.6 1005.4 -
28/03:30pm 31.7 32.5 23.8 63 5.5 WNW 26 32 14 17 1005.8 1005.6 -
28/03:00pm 32.0 33.2 23.8 62 5.7 WNW 24 30 13 16 1005.9 1005.7 -
28/02:30pm 31.5 32.7 23.9 64 5.3 WNW 24 30 13 16 1006.1 1005.9 -
28/02:00pm 31.5 32.7 23.9 64 5.3 WNW 24 28 13 15 1006.4 1006.2 -
28/01:30pm 31.5 32.7 23.9 64 5.3 WNW 24 28 13 15 1006.6 1006.4 -
28/01:00pm 31.9 34.1 24.2 63 5.4 WNW 20 24 11 13 1006.8 1006.6 -
28/12:30pm 31.9 34.5 24.0 63 5.5 WNW 17 20 9 11 1007.3 1007.1 -
28/12:00pm 31.9 34.1 24.0 63 5.5 W 19 22 10 12 1007.6 1007.4 -
28/11:30am 32.0 34.7 24.8 65 5.1 W 19 22 10 12 1007.9 1007.7 -
28/11:00am 31.8 34.6 24.9 67 4.9 W 19 24 10 13 1008.2 1008.0 -
28/10:30am 31.3 33.8 24.4 66 4.8 W 19 24 10 13 1008.1 1007.9 -
28/10:00am 30.7 33.2 24.4 69 4.4 W 19 22 10 12 1008.3 1008.1 -
28/09:30am 30.6 33.1 24.5 70 4.3 W 19 22 10 12 1008.3 1008.1 -
28/09:00am 30.3 33.1 24.9 73 3.8 W 19 22 10 12 1008.2 1008.0 -
28/08:30am 30.0 32.9 25.1 75 3.4 W 19 24 10 13 1008.2 1008.0 -
28/08:00am 29.4 32.5 25.4 79 2.8 W 19 22 10 12 1007.9 1007.7 -
28/07:30am 28.6 32.2 25.6 84 2.1 W 17 20 9 11 1007.7 1007.5 -
28/07:00am 28.0 31.1 25.4 86 1.8 W 19 24 10 13 1007.4 1007.2 -
28/06:30am 27.6 30.3 25.0 86 1.8 W 20 22 11 12 1007.1 1006.9 -
28/06:00am 27.4 29.7 24.5 84 2.0 W 20 24 11 13 1006.9 1006.7 -
28/05:30am 27.4 29.8 24.3 83 2.1 W 19 22 10 12 1006.7 1006.5 -
28/05:00am 27.5 29.8 24.1 82 2.4 WSW 19 24 10 13 1006.8 1006.6 -
28/04:30am 27.4 29.5 24.1 82 2.3 WSW 20 24 11 13 1006.5 1006.3 -
28/04:00am 27.5 30.0 24.4 83 2.2 WSW 19 22 10 12 1006.2 1006.0 -
28/03:30am 27.4 29.7 24.5 84 2.0 W 20 24 11 13 1006.1 1005.9 -
28/03:00am 27.5 29.7 24.9 86 1.8 W 22 26 12 14 1006.2 1006.0 -
28/02:30am 27.3 29.4 24.7 86 1.8 W 22 28 12 15 1006.1 1005.9 -
28/02:00am 27.3 29.4 24.7 86 1.8 W 22 26 12 14 1006.3 1006.1 -
28/01:30am 27.5 30.0 24.7 85 2.0 W 20 24 11 13 1006.6 1006.4 -
28/01:00am 27.5 30.2 24.7 85 2.0 W 19 24 10 13 1006.9 1006.7 -
28/12:30am 27.6 30.0 24.2 82 2.4 W 19 22 10 12 1007.1 1006.9 -
28/12:00am 27.8 29.0 23.2 76 3.2 W 22 24 12 13 1007.4 1007.2 -
 
Date/Time
WST
Temp
°C
App
Temp
°C
Dew
Point
Rel
Hum
%
Delta-T
°C
Wind Press
QNH
hPa
Press
MSL
hPa
Rain
since 9 am
mm
Dir
 
Spd
km/h
Gust
km/h
Spd
kts
Gust
kts
27/11:30pm 27.6 29.2 23.8 80 2.6 WSW 22 26 12 14 1007.6 1007.4 -
27/11:00pm 27.8 28.8 24.2 81 2.5 WSW 26 32 14 17 1007.6 1007.4 -
27/10:30pm 27.8 29.5 24.0 80 2.6 W 22 28 12 15 1007.7 1007.5 -
27/10:00pm 28.0 29.4 23.6 77 3.0 W 22 24 12 13 1007.4 1007.2 -
27/09:30pm 28.0 29.6 23.2 75 3.3 W 20 28 11 15 1007.4 1007.2 -
27/09:00pm 28.1 29.5 23.5 76 3.2 W 22 24 12 13 1007.2 1007.0 -
27/08:30pm 28.2 29.0 22.4 71 3.9 W 22 26 12 14 1006.9 1006.7 -
27/08:00pm 28.1 29.5 22.8 73 3.6 W 20 24 11 13 1006.4 1006.2 -
27/07:30pm 27.9 29.7 24.3 81 2.5 W 22 26 12 14 1005.8 1005.6 -

Other Formats:

Comma delimited format used in spreadsheet applications
http://www.bom.gov.au/fwo/IDW60801/IDW60801.94307.axf

JavaScript Object Notation format (JSON) in row-major order
http://www.bom.gov.au/fwo/IDW60801/IDW60801.94307.json